createdAt,value
2022-09-12T00:01:28.040Z,96069.31
2022-09-12T00:03:30.760Z,96067.41
2022-09-12T00:05:34.925Z,96066.88
2022-09-12T00:07:37.620Z,96064.72
2022-09-12T00:09:40.565Z,96063.34
2022-09-12T00:11:45.705Z,96058.75
2022-09-12T00:13:49.125Z,96061.94
2022-09-12T00:15:51.866Z,96057.91
2022-09-12T00:17:54.562Z,96061.44
2022-09-12T00:19:57.296Z,96059.56
2022-09-12T00:22:01.515Z,96053.06
2022-09-12T00:24:04.519Z,96060.66
2022-09-12T00:26:07.901Z,96022.78
2022-09-12T00:28:10.637Z,96055.50
2022-09-12T00:30:13.673Z,96048.75
2022-09-12T00:32:16.385Z,96042.25
2022-09-12T00:34:19.131Z,96043.88
2022-09-12T00:36:24.580Z,96043.34
2022-09-12T00:38:28.658Z,95972.41
2022-09-12T00:40:31.408Z,96040.47
2022-09-12T00:42:34.085Z,96035.06
2022-09-12T00:44:46.357Z,96038.56
2022-09-12T00:46:51.686Z,96034.78
2022-09-12T00:48:59.185Z,96043.88
2022-09-12T00:51:03.029Z,95943.13
2022-09-12T00:53:08.970Z,96037.66
2022-09-12T00:55:16.749Z,96037.03
2022-09-12T00:57:21.848Z,96042.75
2022-09-12T00:59:28.703Z,96026.91
2022-09-12T01:01:32.738Z,96021.00
2022-09-12T01:03:36.023Z,96018.84
2022-09-12T01:05:44.405Z,96023.97
2022-09-12T01:07:48.921Z,95906.91
2022-09-12T01:09:51.739Z,96025.84
2022-09-12T01:11:56.307Z,96020.19
2022-09-12T01:13:59.045Z,96013.69
2022-09-12T01:16:04.799Z,96019.38
2022-09-12T01:18:18.989Z,96052.03
2022-09-12T01:20:45.363Z,95873.44
2022-09-12T01:23:09.193Z,96016.16
2022-09-12T01:25:25.603Z,96013.44
2022-09-12T01:28:02.790Z,96019.38
2022-09-12T01:30:44.099Z,96009.94
2022-09-12T01:33:00.553Z,96008.84
2022-09-12T01:35:16.573Z,96003.13
2022-09-12T01:37:31.560Z,96004.78
2022-09-12T01:39:41.520Z,96000.47
2022-09-12T01:41:53.842Z,95999.94
2022-09-12T01:44:06.794Z,95994.28
2022-09-12T01:46:17.409Z,95859.38
2022-09-12T01:48:25.755Z,95993.41
2022-09-12T01:50:32.241Z,95991.28
2022-09-12T01:52:40.022Z,95981.00
2022-09-12T01:54:49.344Z,95989.63
2022-09-12T01:56:56.683Z,95986.34
2022-09-12T01:59:05.576Z,95920.66
2022-09-12T02:01:15.716Z,95992.81
2022-09-12T02:03:24.065Z,95687.72
2022-09-12T02:05:32.421Z,95979.28
2022-09-12T02:07:39.890Z,95981.16
2022-09-12T02:09:47.287Z,95979.25
2022-09-12T02:11:53.545Z,95984.06
2022-09-12T02:14:02.966Z,95981.34
2022-09-12T02:16:10.776Z,95980.81
2022-09-12T02:18:18.006Z,95973.56
2022-09-12T02:20:46.799Z,95499.31
2022-09-12T02:22:54.831Z,95973.03
2022-09-12T02:25:01.132Z,95968.72
2022-09-12T02:27:08.844Z,95969.28
2022-09-12T02:29:11.587Z,95967.91
2022-09-12T02:31:22.521Z,95965.75
2022-09-12T02:33:31.641Z,95959.56
2022-09-12T02:35:43.829Z,95956.03
2022-09-12T02:37:56.022Z,95958.16
2022-09-12T02:40:00.003Z,95956.50
2022-09-12T02:42:03.785Z,95960.81
2022-09-12T02:44:07.088Z,95963.97
2022-09-12T02:46:14.298Z,95960.69
2022-09-12T02:48:22.264Z,95638.47
2022-09-12T02:50:25.000Z,95957.91
2022-09-12T02:52:30.514Z,95962.47
2022-09-12T02:54:33.626Z,95965.22
2022-09-12T02:56:37.328Z,95967.41
2022-09-12T02:58:40.159Z,95958.66
2022-09-12T03:00:49.821Z,95967.28
2022-09-12T03:03:16.511Z,95960.06
2022-09-12T03:05:25.397Z,95963.44
2022-09-12T03:07:44.559Z,95955.41
2022-09-12T03:09:58.779Z,95955.41
2022-09-12T03:12:14.814Z,95961.72
2022-09-12T03:14:32.780Z,95863.09
2022-09-12T03:16:44.627Z,95964.75
2022-09-12T03:18:56.753Z,95940.16
2022-09-12T03:21:03.796Z,95947.00
2022-09-12T03:23:18.576Z,95953.28
2022-09-12T03:25:26.088Z,95965.97
2022-09-12T03:27:32.135Z,95840.06
2022-09-12T03:29:35.092Z,95960.44
2022-09-12T03:31:39.319Z,95765.69
2022-09-12T03:33:42.027Z,95655.97
2022-09-12T03:35:45.371Z,95959.03
2022-09-12T03:37:49.328Z,95653.44
2022-09-12T03:39:53.354Z,95970.09
2022-09-12T03:41:56.743Z,95952.41
2022-09-12T03:43:59.592Z,95954.31
2022-09-12T03:46:02.457Z,95957.50
2022-09-12T03:48:06.775Z,95885.78
2022-09-12T03:50:10.035Z,95958.00
2022-09-12T03:52:12.696Z,95960.97
2022-09-12T03:54:15.379Z,95453.00
2022-09-12T03:56:19.521Z,95954.50
2022-09-12T03:58:22.210Z,95945.41
2022-09-12T04:00:25.156Z,95946.56
2022-09-12T04:02:27.882Z,95944.44
2022-09-12T04:04:30.539Z,95944.16
2022-09-12T04:06:33.352Z,95927.16
2022-09-12T04:08:36.653Z,95943.38
2022-09-12T04:10:39.332Z,95934.72
2022-09-12T04:12:43.463Z,95682.22
2022-09-12T04:14:46.413Z,95947.13
2022-09-12T04:16:49.086Z,95954.66
2022-09-12T04:18:51.781Z,95947.88
2022-09-12T04:20:55.062Z,95947.06
2022-09-12T04:22:57.780Z,95954.09
2022-09-12T04:25:00.501Z,95947.63
2022-09-12T04:27:07.628Z,95944.88
2022-09-12T04:29:12.974Z,96014.31
2022-09-12T04:31:20.320Z,95816.41
2022-09-12T04:33:23.592Z,95953.41
2022-09-12T04:35:26.862Z,95947.69
2022-09-12T04:37:29.526Z,95953.34
2022-09-12T04:39:32.295Z,95837.03
2022-09-12T04:41:36.903Z,96011.75
2022-09-12T04:43:39.653Z,95957.63
2022-09-12T04:45:43.727Z,95947.88
2022-09-12T04:47:47.007Z,95951.38
2022-09-12T04:49:51.102Z,95847.22
2022-09-12T04:51:54.807Z,95947.88
2022-09-12T04:53:59.217Z,95952.19
2022-09-12T04:56:03.750Z,95947.38
2022-09-12T04:58:06.388Z,95952.75
2022-09-12T05:00:13.118Z,95952.75
2022-09-12T05:02:17.260Z,95953.13
2022-09-12T05:04:19.993Z,95955.19
2022-09-12T05:06:25.069Z,95910.72
2022-09-12T05:08:27.711Z,95951.41
2022-09-12T05:10:31.127Z,95948.47
2022-09-12T05:12:33.873Z,95946.91
2022-09-12T05:14:36.553Z,95949.88
2022-09-12T05:16:39.335Z,95959.59
2022-09-12T05:18:44.527Z,95947.31
2022-09-12T05:20:47.260Z,95952.47
2022-09-12T05:22:49.958Z,95955.78
2022-09-12T05:24:52.689Z,95927.63
2022-09-12T05:26:55.433Z,95895.75
2022-09-12T05:28:58.129Z,95962.06
2022-09-12T05:31:02.645Z,95965.56
2022-09-12T05:33:05.931Z,95965.56
2022-09-12T05:35:11.148Z,95965.06
2022-09-12T05:37:13.824Z,95971.00
2022-09-12T05:39:16.760Z,95966.69
2022-09-12T05:41:24.852Z,95961.34
2022-09-12T05:43:27.734Z,95962.47
2022-09-12T05:45:31.019Z,95970.53
2022-09-12T05:47:33.698Z,95858.34
2022-09-12T05:49:36.429Z,95971.44
2022-09-12T05:51:42.568Z,95969.59
2022-09-12T05:53:45.298Z,95974.50
2022-09-12T05:55:47.975Z,95973.69
2022-09-12T05:57:50.739Z,95954.31
2022-09-12T05:59:53.983Z,95855.56
2022-09-12T06:01:56.733Z,95763.50
2022-09-12T06:04:01.349Z,95964.41
2022-09-12T06:06:05.632Z,95868.41
2022-09-12T06:08:09.865Z,95966.91
2022-09-12T06:10:12.554Z,95997.38
2022-09-12T06:12:15.285Z,95967.63
2022-09-12T06:14:19.461Z,95868.16
2022-09-12T06:16:25.907Z,95982.25
2022-09-12T06:18:28.644Z,95972.06
2022-09-12T06:20:31.323Z,95981.56
2022-09-12T06:22:34.258Z,95908.09
2022-09-12T06:24:38.318Z,95976.03
2022-09-12T06:26:41.140Z,95979.88
2022-09-12T06:28:45.761Z,95972.63
2022-09-12T06:30:48.766Z,95971.56
2022-09-12T06:32:51.432Z,95968.34
2022-09-12T06:34:54.104Z,95723.38
2022-09-12T06:36:57.910Z,95939.97
2022-09-12T06:39:02.722Z,95965.47
2022-09-12T06:41:07.464Z,95964.44
2022-09-12T06:43:10.226Z,95961.50
2022-09-12T06:45:16.444Z,95964.50
2022-09-12T06:47:19.152Z,95569.88
2022-09-12T06:49:21.902Z,95965.09
2022-09-12T06:51:24.707Z,95985.63
2022-09-12T06:53:28.456Z,95859.47
2022-09-12T06:55:31.193Z,95972.66
2022-09-12T06:57:36.826Z,95973.19
2022-09-12T06:59:39.607Z,95988.31
2022-09-12T07:01:42.816Z,95977.50
2022-09-12T07:03:49.576Z,95973.19
2022-09-12T07:05:52.628Z,95977.75
2022-09-12T07:07:55.861Z,95979.63
2022-09-12T07:09:58.678Z,95645.88
2022-09-12T07:12:04.346Z,95971.50
2022-09-12T07:14:10.254Z,95862.75
2022-09-12T07:16:18.695Z,95965.53
2022-09-12T07:18:23.652Z,95964.41
2022-09-12T07:20:26.340Z,95970.34
2022-09-12T07:22:29.086Z,95976.81
2022-09-12T07:24:31.867Z,95896.09
2022-09-12T07:26:34.639Z,95970.25
2022-09-12T07:28:38.065Z,95964.00
2022-09-12T07:30:42.564Z,95899.50
2022-09-12T07:32:45.291Z,95959.34
2022-09-12T07:34:48.045Z,95637.75
2022-09-12T07:36:50.752Z,95928.31
2022-09-12T07:38:57.695Z,95966.31
2022-09-12T07:41:01.782Z,95965.19
2022-09-12T07:43:04.601Z,95964.34
2022-09-12T07:45:08.126Z,95958.63
2022-09-12T07:47:12.315Z,95958.03
2022-09-12T07:49:15.119Z,95963.94
2022-09-12T07:51:18.479Z,95956.34
2022-09-12T07:53:21.267Z,95752.25
2022-09-12T07:55:23.966Z,95960.56
2022-09-12T07:57:26.671Z,95962.66
2022-09-12T07:59:51.596Z,95963.38
2022-09-12T08:01:52.462Z,95884.53
2022-09-12T08:03:58.383Z,95950.22
2022-09-12T08:06:05.635Z,95950.63
2022-09-12T08:08:08.534Z,95824.72
2022-09-12T08:10:11.913Z,95963.16
2022-09-12T08:12:14.791Z,95959.75
2022-09-12T08:14:18.344Z,95910.13
2022-09-12T08:16:22.721Z,95961.69
2022-09-12T08:18:25.677Z,95952.09
2022-09-12T08:20:30.418Z,95965.53
2022-09-12T08:22:33.176Z,95971.94
2022-09-12T08:24:35.913Z,95996.53
2022-09-12T08:26:39.048Z,95968.56
2022-09-12T08:28:45.646Z,95945.75
2022-09-12T08:30:48.328Z,95962.53
2022-09-12T08:32:51.000Z,95971.38
2022-09-12T08:34:53.684Z,95969.31
2022-09-12T08:36:57.746Z,95964.44
2022-09-12T08:39:02.074Z,95973.03
2022-09-12T08:41:10.740Z,95962.97
2022-09-12T08:43:30.720Z,95962.84
2022-09-12T08:45:39.853Z,95957.63
2022-09-12T08:47:46.443Z,95906.81
2022-09-12T08:49:58.087Z,95956.75
2022-09-12T08:52:08.237Z,95958.75
2022-09-12T08:54:19.444Z,95954.41
2022-09-12T08:56:22.221Z,95957.63
2022-09-12T08:58:27.202Z,95956.09
2022-09-12T09:00:41.719Z,95962.00
2022-09-12T09:03:18.736Z,95892.06
2022-09-12T09:05:27.784Z,95876.50
2022-09-12T09:08:01.206Z,95958.22
2022-09-12T09:10:20.412Z,95958.59
2022-09-12T09:12:29.514Z,95961.88
2022-09-12T09:14:49.744Z,95967.13
2022-09-12T09:16:54.909Z,95951.94
2022-09-12T09:18:59.485Z,95947.00
2022-09-12T09:21:09.338Z,95951.56
2022-09-12T09:23:21.741Z,95914.63
2022-09-12T09:25:27.523Z,95862.63
2022-09-12T09:27:41.051Z,95949.47
2022-09-12T09:29:48.737Z,95956.47
2022-09-12T09:31:55.900Z,95949.16
2022-09-12T09:33:58.693Z,95949.03
2022-09-12T09:36:09.976Z,95948.41
2022-09-12T09:38:24.599Z,95948.53
2022-09-12T09:40:37.562Z,95948.78
2022-09-12T09:42:45.617Z,95944.44
2022-09-12T09:44:49.301Z,95946.06
2022-09-12T09:46:56.473Z,95951.50
2022-09-12T09:49:03.139Z,95842.50
2022-09-12T09:51:09.280Z,95958.59
2022-09-12T09:53:25.303Z,95951.19
2022-09-12T09:55:35.700Z,95934.88
2022-09-12T09:57:46.704Z,95942.63
2022-09-12T09:59:49.573Z,95905.63
2022-09-12T10:01:54.853Z,95824.44
2022-09-12T10:03:58.708Z,95941.41
2022-09-12T10:06:03.812Z,95946.72
2022-09-12T10:08:08.552Z,95947.66
2022-09-12T10:10:18.735Z,95681.44
2022-09-12T10:12:28.284Z,95833.75
2022-09-12T10:14:37.926Z,95944.19
2022-09-12T10:16:52.725Z,95746.34
2022-09-12T10:18:57.477Z,95916.63
2022-09-12T10:21:01.690Z,95943.16
2022-09-12T10:23:24.632Z,95717.03
2022-09-12T10:25:29.552Z,95930.28
2022-09-12T10:27:34.191Z,95933.44
2022-09-12T10:29:50.471Z,95940.97
2022-09-12T10:31:55.945Z,95928.69
2022-09-12T10:34:00.814Z,95930.19
2022-09-12T10:36:04.017Z,95927.59
2022-09-12T10:38:08.488Z,95921.91
2022-09-12T10:40:24.837Z,95920.16
2022-09-12T10:42:48.146Z,95923.19
2022-09-12T10:44:55.705Z,95919.63
2022-09-12T10:46:59.898Z,95883.59
2022-09-12T10:49:24.333Z,95915.19
2022-09-12T10:51:29.331Z,95810.06
2022-09-12T10:53:41.102Z,95917.69
2022-09-12T10:55:58.308Z,95917.03
2022-09-12T10:58:13.323Z,95865.38
2022-09-12T11:00:18.005Z,95914.69
2022-09-12T11:02:29.511Z,95906.84
2022-09-12T11:04:47.568Z,95907.38
2022-09-12T11:07:10.098Z,95904.78
2022-09-12T11:09:22.716Z,95845.75
2022-09-12T11:11:41.042Z,95892.88
2022-09-12T11:13:57.232Z,95892.97
2022-09-12T11:16:11.680Z,95890.31
2022-09-12T11:18:31.445Z,95888.97
2022-09-12T11:20:47.114Z,95888.88
2022-09-12T11:23:07.017Z,95851.22
2022-09-12T11:25:21.097Z,95750.22
2022-09-12T11:27:36.246Z,95894.16
2022-09-12T11:29:50.654Z,95887.94
2022-09-12T11:32:25.545Z,95740.25
2022-09-12T11:34:36.670Z,95886.38
2022-09-12T11:37:07.403Z,95885.38
2022-09-12T11:39:35.038Z,95828.38
2022-09-12T11:41:41.054Z,95764.81
2022-09-12T11:43:49.068Z,95882.59
2022-09-12T11:45:54.254Z,95875.53
2022-09-12T11:48:03.995Z,95763.69
2022-09-12T11:50:21.516Z,95822.84
2022-09-12T11:52:25.747Z,95867.44
2022-09-12T11:54:34.152Z,95863.66
2022-09-12T11:56:42.883Z,95852.63
2022-09-12T11:58:51.998Z,95844.78
2022-09-12T12:01:00.089Z,95852.41
2022-09-12T12:03:10.094Z,95852.63
2022-09-12T12:05:21.361Z,95856.53
2022-09-12T12:07:24.142Z,95847.72
2022-09-12T12:09:26.746Z,95857.25
2022-09-12T12:11:33.670Z,95797.28
2022-09-12T12:13:39.929Z,95857.69
2022-09-12T12:15:48.532Z,95842.63
2022-09-12T12:18:04.360Z,95842.09
2022-09-12T12:20:09.366Z,95838.47
2022-09-12T12:22:21.507Z,95653.06
2022-09-12T12:24:26.264Z,95831.00
2022-09-12T12:26:57.262Z,95836.78
2022-09-12T12:29:01.261Z,95833.06
2022-09-12T12:31:04.398Z,95828.94
2022-09-12T12:33:51.735Z,95820.97
2022-09-12T12:36:07.097Z,95819.44
2022-09-12T12:38:29.043Z,95821.66
2022-09-12T12:40:33.004Z,95779.56
2022-09-12T12:43:17.494Z,95818.91
2022-09-12T12:46:02.804Z,95816.03
2022-09-12T12:48:10.996Z,95816.00
2022-09-12T12:50:23.881Z,95818.75
2022-09-12T12:52:31.781Z,95810.47
2022-09-12T12:54:53.582Z,95811.41
2022-09-12T12:57:17.894Z,95816.13
2022-09-12T12:59:24.115Z,95625.09
2022-09-12T13:01:27.506Z,95808.38
2022-09-12T13:03:33.277Z,95591.59
2022-09-12T13:05:42.117Z,95808.91
2022-09-12T13:07:48.018Z,95809.06
2022-09-12T13:09:54.560Z,95685.59
2022-09-12T13:12:01.401Z,95810.50
2022-09-12T13:14:07.142Z,95786.38
2022-09-12T13:16:10.975Z,95731.34
2022-09-12T13:18:19.145Z,95797.91
2022-09-12T13:20:28.624Z,95610.75
2022-09-12T13:22:42.056Z,95795.38
2022-09-12T13:24:48.866Z,95794.59
2022-09-12T13:26:51.866Z,95758.03
2022-09-12T13:29:17.287Z,95791.53
2022-09-12T13:31:25.538Z,95794.19
2022-09-12T13:33:36.550Z,95767.56
2022-09-12T13:35:50.765Z,95794.63
2022-09-12T13:37:58.461Z,95786.38
2022-09-12T13:40:14.216Z,95734.28
2022-09-12T13:42:42.085Z,95771.25
2022-09-12T13:44:48.436Z,95774.53
2022-09-12T13:46:52.492Z,95778.13
2022-09-12T13:48:55.660Z,95773.69
2022-09-12T13:51:01.355Z,95761.91
2022-09-12T13:53:07.984Z,95765.81
2022-09-12T13:55:26.528Z,95751.69
2022-09-12T13:57:34.579Z,95753.31
2022-09-12T13:59:41.053Z,95748.53
2022-09-12T14:01:45.428Z,95644.47
2022-09-12T14:04:09.306Z,95683.78
2022-09-12T14:06:12.948Z,95710.03
2022-09-12T14:08:16.546Z,95742.94
2022-09-12T14:10:27.121Z,95737.41
2022-09-12T14:12:35.184Z,95736.63
2022-09-12T14:14:44.090Z,95744.91
2022-09-12T14:16:47.140Z,95742.84
2022-09-12T14:18:51.833Z,95738.09
2022-09-12T14:20:57.117Z,95740.44
2022-09-12T14:23:03.430Z,95733.72
2022-09-12T14:25:08.912Z,95727.75
2022-09-12T14:27:13.991Z,95636.44
2022-09-12T14:29:18.508Z,95723.31
2022-09-12T14:31:24.876Z,95637.28
2022-09-12T14:33:27.697Z,95713.50
2022-09-12T14:35:32.449Z,95519.47
2022-09-12T14:37:35.468Z,95719.81
2022-09-12T14:39:42.115Z,95580.47
2022-09-12T14:41:46.344Z,95720.56
2022-09-12T14:43:54.258Z,95716.22
2022-09-12T14:46:00.539Z,95712.28
2022-09-12T14:48:04.288Z,95688.88
2022-09-12T14:50:17.137Z,95708.00
2022-09-12T14:52:29.703Z,95711.44
2022-09-12T14:54:39.488Z,95701.69
2022-09-12T14:56:45.933Z,95699.22
2022-09-12T14:58:50.645Z,95691.22
2022-09-12T15:00:59.528Z,95673.66
2022-09-12T15:03:25.994Z,95698.13
2022-09-12T15:05:29.414Z,95543.13
2022-09-12T15:07:34.642Z,95696.13
2022-09-12T15:09:37.356Z,95690.94
2022-09-12T15:11:40.379Z,95697.28
2022-09-12T15:13:43.284Z,95668.66
2022-09-12T15:15:49.318Z,95672.44
2022-09-12T15:17:52.034Z,95696.84
2022-09-12T15:19:54.774Z,95693.19
2022-09-12T15:21:57.862Z,95692.31
2022-09-12T15:24:00.618Z,95574.84
2022-09-12T15:26:04.614Z,95688.84
2022-09-12T15:28:17.356Z,95694.03
2022-09-12T15:30:20.422Z,95692.19
2022-09-12T15:32:29.452Z,95665.66
2022-09-12T15:34:32.140Z,95693.88
2022-09-12T15:36:34.825Z,95689.91
2022-09-12T15:38:37.688Z,95687.97
2022-09-12T15:40:40.662Z,95692.94
2022-09-12T15:42:43.999Z,95681.81
2022-09-12T15:44:46.658Z,95677.22
2022-09-12T15:46:49.436Z,95675.28
2022-09-12T15:48:53.483Z,95673.69
2022-09-12T15:51:01.260Z,95675.72
2022-09-12T15:53:03.981Z,95670.78
2022-09-12T15:55:12.305Z,95659.81
2022-09-12T15:57:15.130Z,95663.06
2022-09-12T15:59:17.785Z,95663.44
2022-09-12T16:01:20.556Z,95658.91
2022-09-12T16:03:25.235Z,95665.75
2022-09-12T16:05:29.546Z,95661.47
2022-09-12T16:07:32.300Z,95661.75
2022-09-12T16:09:34.981Z,95663.81
2022-09-12T16:11:37.732Z,95656.78
2022-09-12T16:13:40.568Z,95660.19
2022-09-12T16:15:43.393Z,95654.75
2022-09-12T16:17:46.114Z,95646.78
2022-09-12T16:19:48.797Z,95596.91
2022-09-12T16:21:52.820Z,95650.00
2022-09-12T16:23:55.590Z,95654.25
2022-09-12T16:25:58.802Z,95650.38
2022-09-12T16:28:01.798Z,95493.50
2022-09-12T16:30:05.693Z,95647.03
2022-09-12T16:32:08.452Z,95645.75
2022-09-12T16:34:11.868Z,95638.72
2022-09-12T16:36:16.760Z,95638.53
2022-09-12T16:38:20.800Z,95642.44
2022-09-12T16:40:23.517Z,95637.84
2022-09-12T16:42:26.231Z,95641.84
2022-09-12T16:44:28.903Z,95636.69
2022-09-12T16:46:31.680Z,95650.78
2022-09-12T16:48:34.938Z,94644.44
2022-09-12T16:50:37.571Z,95553.22
2022-09-12T16:52:40.242Z,95627.75
2022-09-12T16:54:45.059Z,95634.50
2022-09-12T16:56:48.923Z,95626.72
2022-09-12T16:58:51.840Z,95627.34
2022-09-12T17:01:00.850Z,95620.41
2022-09-12T17:03:03.917Z,95619.63
2022-09-12T17:05:07.449Z,95628.38
2022-09-12T17:07:10.620Z,95470.91
2022-09-12T17:09:18.390Z,95609.91
2022-09-12T17:11:25.528Z,95624.50
2022-09-12T17:13:46.549Z,95634.78
2022-09-12T17:15:51.753Z,95631.00
2022-09-12T17:17:54.561Z,95639.66
2022-09-12T17:19:57.312Z,95637.03
2022-09-12T17:22:00.205Z,95455.72
2022-09-12T17:24:03.538Z,95430.94
2022-09-12T17:26:07.298Z,95632.38
2022-09-12T17:28:11.337Z,95506.50
2022-09-12T17:30:14.755Z,95682.88
2022-09-12T17:32:17.803Z,95640.94
2022-09-12T17:34:20.555Z,95610.25
2022-09-12T17:36:23.403Z,95645.50
2022-09-12T17:38:26.123Z,95645.19
2022-09-12T17:40:55.738Z,95637.25
2022-09-12T17:42:51.744Z,95645.34
2022-09-12T17:44:58.321Z,95643.88
2022-09-12T17:47:01.103Z,95644.84
2022-09-12T17:49:06.247Z,95643.78
2022-09-12T17:51:09.538Z,95559.00
2022-09-12T17:53:13.177Z,95644.25
2022-09-12T17:55:16.060Z,95439.78
2022-09-12T17:57:18.729Z,95644.66
2022-09-12T17:59:24.676Z,95651.88
2022-09-12T18:01:47.726Z,95648.91
2022-09-12T18:03:50.625Z,95434.91
2022-09-12T18:05:55.148Z,95648.47
2022-09-12T18:07:57.818Z,95652.78
2022-09-12T18:10:00.517Z,95648.63
2022-09-12T18:12:03.648Z,95647.94
2022-09-12T18:14:06.541Z,95655.19
2022-09-12T18:16:11.753Z,95643.41
2022-09-12T18:18:16.025Z,95581.94
2022-09-12T18:20:18.771Z,95395.38
2022-09-12T18:22:21.450Z,95645.53
2022-09-12T18:24:24.560Z,95655.59
2022-09-12T18:26:28.989Z,95441.56
2022-09-12T18:28:33.197Z,95661.16
2022-09-12T18:30:35.824Z,95658.09
2022-09-12T18:32:38.425Z,95660.81
2022-09-12T18:34:42.474Z,95660.75
2022-09-12T18:36:46.608Z,95662.28
2022-09-12T18:38:49.595Z,95683.91
2022-09-12T18:41:02.638Z,95661.31
2022-09-12T18:43:05.230Z,95664.94
2022-09-12T18:45:09.155Z,95658.84
2022-09-12T18:47:11.823Z,95661.44
2022-09-12T18:49:14.459Z,95658.94
2022-09-12T18:51:20.323Z,95663.31
2022-09-12T18:53:22.963Z,95661.41
2022-09-12T18:55:25.716Z,95565.50
2022-09-12T18:57:30.491Z,95667.09
2022-09-12T18:59:33.191Z,95604.69
2022-09-12T19:01:38.011Z,95665.66
2022-09-12T19:03:41.187Z,95706.69
2022-09-12T19:05:43.889Z,95658.81
2022-09-12T19:07:48.044Z,95655.28
2022-09-12T19:09:50.809Z,95671.00
2022-09-12T19:11:53.682Z,95652.69
2022-09-12T19:13:57.106Z,95632.63
2022-09-12T19:16:01.441Z,95658.63
2022-09-12T19:18:04.463Z,95652.88
2022-09-12T19:20:07.822Z,95554.28
2022-09-12T19:22:10.582Z,95652.38
2022-09-12T19:24:16.516Z,95664.91
2022-09-12T19:26:20.657Z,95654.75
2022-09-12T19:28:23.364Z,95662.28
2022-09-12T19:30:26.027Z,95664.84
2022-09-12T19:32:30.326Z,95645.53
2022-09-12T19:34:33.555Z,95115.84
2022-09-12T19:36:45.816Z,95665.28
2022-09-12T19:38:49.212Z,95622.69
2022-09-12T19:41:00.199Z,95653.34
2022-09-12T19:43:03.197Z,95651.06
2022-09-12T19:45:06.584Z,95657.31
2022-09-12T19:47:09.901Z,95656.22
2022-09-12T19:49:13.333Z,95646.25
2022-09-12T19:51:17.535Z,95649.91
2022-09-12T19:53:20.713Z,95603.13
2022-09-12T19:55:23.364Z,95429.00
2022-09-12T19:57:27.387Z,95458.19
2022-09-12T19:59:30.059Z,95542.34
2022-09-12T20:01:33.114Z,95658.84
2022-09-12T20:03:35.893Z,95658.84
2022-09-12T20:05:42.517Z,95668.44
2022-09-12T20:07:45.578Z,95668.16
2022-09-12T20:09:48.273Z,95669.75
2022-09-12T20:11:51.165Z,95635.31
2022-09-12T20:13:55.176Z,95667.28
2022-09-12T20:15:57.932Z,95663.34
2022-09-12T20:18:00.900Z,95655.53
2022-09-12T20:20:03.775Z,95655.53
2022-09-12T20:22:07.359Z,95652.50
2022-09-12T20:24:13.578Z,95648.91
2022-09-12T20:26:16.356Z,95645.34
2022-09-12T20:28:19.074Z,95645.34
2022-09-12T20:30:23.326Z,95643.09
2022-09-12T20:32:28.236Z,95643.53
2022-09-12T20:34:31.366Z,95650.84
2022-09-12T20:36:34.475Z,95487.91
2022-09-12T20:38:37.452Z,95416.56
2022-09-12T20:40:40.158Z,95638.94
2022-09-12T20:42:42.887Z,95641.97
2022-09-12T20:44:45.511Z,95653.91
2022-09-12T20:46:49.584Z,95647.66
2022-09-12T20:48:53.052Z,95646.84
2022-09-12T20:50:59.262Z,95644.75
2022-09-12T20:53:01.947Z,95634.66
2022-09-12T20:55:05.097Z,95646.66
2022-09-12T20:57:07.745Z,95647.09
2022-09-12T20:59:12.357Z,95596.19
2022-09-12T21:01:16.561Z,95581.72
2022-09-12T21:03:20.608Z,95643.59
2022-09-12T21:05:23.324Z,95647.44
2022-09-12T21:07:25.954Z,95654.00
2022-09-12T21:09:28.637Z,95645.75
2022-09-12T21:11:31.278Z,95648.56
2022-09-12T21:13:34.156Z,95652.41
2022-09-12T21:15:37.022Z,95644.75
2022-09-12T21:17:39.848Z,95648.97
2022-09-12T21:19:43.922Z,95656.44
2022-09-12T21:21:46.685Z,95656.66
2022-09-12T21:23:50.667Z,95504.72
2022-09-12T21:25:53.445Z,95657.44
2022-09-12T21:27:56.053Z,95654.00
2022-09-12T21:29:59.329Z,95655.63
2022-09-12T21:32:02.362Z,95652.34
2022-09-12T21:34:05.000Z,95642.75
2022-09-12T21:36:10.353Z,95639.94
2022-09-12T21:38:12.948Z,95648.38
2022-09-12T21:40:15.851Z,95640.34
2022-09-12T21:42:18.648Z,95630.69
2022-09-12T21:44:21.269Z,95515.22
2022-09-12T21:46:23.946Z,95634.91
2022-09-12T21:48:27.075Z,95631.56
2022-09-12T21:50:29.695Z,95637.13
2022-09-12T21:52:33.873Z,95628.16
2022-09-12T21:54:36.528Z,95628.66
2022-09-12T21:56:39.349Z,95550.91
2022-09-12T21:58:42.001Z,95622.31
2022-09-12T22:00:44.910Z,95622.22
2022-09-12T22:02:48.642Z,95618.19
2022-09-12T22:04:51.317Z,95611.97
2022-09-12T22:06:53.986Z,95613.78
2022-09-12T22:08:58.403Z,95614.38
2022-09-12T22:11:02.420Z,95615.38
2022-09-12T22:13:05.557Z,95617.41
2022-09-12T22:15:29.166Z,95612.78
2022-09-12T22:17:31.650Z,95608.34
2022-09-12T22:19:34.379Z,95602.72
2022-09-12T22:21:57.128Z,95600.41
2022-09-12T22:24:18.843Z,95591.13
2022-09-12T22:26:21.725Z,95552.63
2022-09-12T22:28:25.440Z,95557.34
2022-09-12T22:30:28.614Z,95596.47
2022-09-12T22:32:31.316Z,95596.56
2022-09-12T22:34:34.079Z,95598.47
2022-09-12T22:36:39.001Z,95541.44
2022-09-12T22:38:41.994Z,95604.31
2022-09-12T22:40:46.134Z,95600.88
2022-09-12T22:42:48.878Z,95600.47
2022-09-12T22:44:51.849Z,95608.31
2022-09-12T22:46:54.589Z,95511.09
2022-09-12T22:48:57.321Z,95609.91
2022-09-12T22:51:00.047Z,95604.47
2022-09-12T22:53:02.921Z,95601.16
2022-09-12T22:55:06.233Z,95603.25
2022-09-12T22:57:10.369Z,95604.88
2022-09-12T22:59:13.151Z,95546.09
2022-09-12T23:01:16.120Z,95603.84
2022-09-12T23:03:19.897Z,95603.84
2022-09-12T23:05:22.657Z,95608.41
2022-09-12T23:07:26.109Z,95602.84
2022-09-12T23:09:32.126Z,95606.88
2022-09-12T23:11:37.961Z,95609.72
2022-09-12T23:13:43.819Z,95600.28
2022-09-12T23:15:46.774Z,95602.88
2022-09-12T23:17:49.564Z,95607.59
2022-09-12T23:19:52.699Z,95536.31
2022-09-12T23:21:55.484Z,95489.63
2022-09-12T23:23:58.433Z,95586.97
2022-09-12T23:26:05.955Z,95116.28
2022-09-12T23:28:08.700Z,95585.31
2022-09-12T23:30:13.351Z,95584.97
2022-09-12T23:32:16.183Z,95583.03
2022-09-12T23:34:19.160Z,95583.56
2022-09-12T23:36:22.460Z,95577.53
2022-09-12T23:38:25.214Z,95581.94
2022-09-12T23:40:27.852Z,95594.41
2022-09-12T23:42:30.673Z,95514.53
2022-09-12T23:44:33.391Z,95575.31
2022-09-12T23:46:37.474Z,95569.91
2022-09-12T23:48:40.732Z,95579.44
2022-09-12T23:50:45.627Z,95443.94
2022-09-12T23:52:48.379Z,95570.50
2022-09-12T23:54:51.086Z,95451.13
2022-09-12T23:56:53.854Z,95562.28
2022-09-12T23:58:56.523Z,95555.56
